createdAt,value
2023-03-26T00:01:54.259Z,83.66
2023-03-26T00:05:07.930Z,84.06
2023-03-26T00:08:20.274Z,84.44
2023-03-26T00:11:32.910Z,84.89
2023-03-26T00:14:45.241Z,85.22
2023-03-26T00:17:57.913Z,85.07
2023-03-26T00:21:15.249Z,85.21
2023-03-26T00:24:29.818Z,84.80
2023-03-26T00:27:42.196Z,83.82
2023-03-26T00:31:02.430Z,83.46
2023-03-26T00:34:18.603Z,82.35
2023-03-26T00:37:33.897Z,83.14
2023-03-26T00:40:48.082Z,83.46
2023-03-26T00:44:00.801Z,84.53
2023-03-26T00:47:13.389Z,85.16
2023-03-26T00:50:26.103Z,85.43
2023-03-26T00:53:39.025Z,85.61
2023-03-26T00:56:55.878Z,85.04
2023-03-26T01:00:11.225Z,85.23
2023-03-26T01:03:27.762Z,85.02
2023-03-26T01:06:42.359Z,84.73
2023-03-26T01:09:59.055Z,85.13
2023-03-26T01:13:11.415Z,85.16
2023-03-26T01:16:37.237Z,85.64
2023-03-26T01:20:15.155Z,85.90
2023-03-26T01:23:29.976Z,85.97
2023-03-26T01:26:54.695Z,86.04
2023-03-26T01:30:34.766Z,85.99
2023-03-26T01:33:50.858Z,85.99
2023-03-26T01:37:13.403Z,85.53
2023-03-26T01:40:38.812Z,85.56
2023-03-26T01:43:55.328Z,85.22
2023-03-26T01:47:07.743Z,85.21
2023-03-26T01:50:20.456Z,85.16
2023-03-26T01:53:33.677Z,85.42
2023-03-26T01:56:52.382Z,85.88
2023-03-26T02:00:28.778Z,85.81
2023-03-26T02:03:49.307Z,86.52
2023-03-26T02:08:09.718Z,86.88
2023-03-26T02:11:23.333Z,87.36
2023-03-26T02:14:36.234Z,87.18
2023-03-26T02:17:49.581Z,87.20
2023-03-26T02:21:26.258Z,87.08
2023-03-26T02:24:38.822Z,87.54
2023-03-26T02:27:52.265Z,87.46
2023-03-26T02:31:05.787Z,88.54
2023-03-26T02:34:18.398Z,88.72
2023-03-26T02:37:33.818Z,88.91
2023-03-26T02:40:48.558Z,88.87
2023-03-26T02:44:00.949Z,88.90
2023-03-26T02:47:15.013Z,89.06
2023-03-26T02:50:32.626Z,88.98
2023-03-26T02:53:47.562Z,88.73
2023-03-26T02:57:00.705Z,88.74
2023-03-26T03:00:14.623Z,88.16
2023-03-26T03:03:28.174Z,87.71
2023-03-26T03:06:42.045Z,88.17
2023-03-26T03:09:54.446Z,88.51
2023-03-26T03:13:09.940Z,89.21
2023-03-26T03:16:22.361Z,89.65
2023-03-26T03:19:35.207Z,89.85
2023-03-26T03:22:47.575Z,90.14
2023-03-26T03:26:00.145Z,90.45
2023-03-26T03:29:13.068Z,90.89
2023-03-26T03:32:25.821Z,90.53
2023-03-26T03:35:40.045Z,90.53
2023-03-26T03:38:52.845Z,90.83
2023-03-26T03:42:05.442Z,90.86
2023-03-26T03:45:18.871Z,91.41
2023-03-26T03:48:31.857Z,91.50
2023-03-26T03:51:45.069Z,91.72
2023-03-26T03:55:00.453Z,92.07
2023-03-26T03:58:15.004Z,92.43
2023-03-26T04:01:30.745Z,92.69
2023-03-26T04:04:46.442Z,92.73
2023-03-26T04:08:00.106Z,93.90
2023-03-26T04:11:14.470Z,94.16
2023-03-26T04:14:28.584Z,93.54
2023-03-26T04:17:45.449Z,93.56
2023-03-26T04:21:02.403Z,93.75
2023-03-26T04:24:15.284Z,94.23
2023-03-26T04:27:32.095Z,94.23
2023-03-26T04:30:46.928Z,94.34
2023-03-26T04:34:05.595Z,94.48
2023-03-26T04:37:34.576Z,94.88
2023-03-26T04:40:48.390Z,94.92
2023-03-26T04:44:02.461Z,94.11
2023-03-26T04:47:15.002Z,94.09
2023-03-26T04:50:28.144Z,94.53
2023-03-26T04:53:40.591Z,94.22
2023-03-26T04:56:59.380Z,93.49
2023-03-26T05:00:18.704Z,93.22
2023-03-26T05:03:32.602Z,93.82
2023-03-26T05:06:45.605Z,93.17
2023-03-26T05:09:59.184Z,92.06
2023-03-26T05:13:14.496Z,89.44
2023-03-26T05:16:29.781Z,87.50
2023-03-26T05:19:42.292Z,86.60
2023-03-26T05:22:55.107Z,84.58
2023-03-26T05:26:09.445Z,83.60
2023-03-26T05:29:24.215Z,82.58
2023-03-26T05:32:38.166Z,81.69
2023-03-26T05:36:03.997Z,81.34
2023-03-26T05:39:16.764Z,80.61
2023-03-26T05:42:31.598Z,80.01
2023-03-26T05:45:47.792Z,79.21
2023-03-26T05:49:01.398Z,79.00
2023-03-26T05:52:18.958Z,78.77
2023-03-26T05:55:33.442Z,77.95
2023-03-26T05:58:50.907Z,77.63
2023-03-26T06:02:06.503Z,76.97
2023-03-26T06:05:20.130Z,76.42
2023-03-26T06:08:33.558Z,76.91
2023-03-26T06:11:46.334Z,78.28
2023-03-26T06:14:58.752Z,79.00
2023-03-26T06:18:11.880Z,80.04
2023-03-26T06:21:25.773Z,80.77
2023-03-26T06:24:38.639Z,80.59
2023-03-26T06:27:51.327Z,80.81
2023-03-26T06:31:04.961Z,80.99
2023-03-26T06:34:17.684Z,81.11
2023-03-26T06:37:30.411Z,79.67
2023-03-26T06:40:43.067Z,79.18
2023-03-26T06:43:59.044Z,79.93
2023-03-26T06:47:11.764Z,79.92
2023-03-26T06:50:26.566Z,80.03
2023-03-26T06:53:38.996Z,78.15
2023-03-26T06:56:52.668Z,78.29
2023-03-26T07:00:06.159Z,77.43
2023-03-26T07:03:22.623Z,77.57
2023-03-26T07:06:47.555Z,77.12
2023-03-26T07:10:10.617Z,77.40
2023-03-26T07:13:24.140Z,76.92
2023-03-26T07:16:39.732Z,75.56
2023-03-26T07:19:54.261Z,75.38
2023-03-26T07:23:10.528Z,75.02
2023-03-26T07:26:35.413Z,75.38
2023-03-26T07:30:10.533Z,75.87
2023-03-26T07:33:54.866Z,76.98
2023-03-26T07:37:16.297Z,76.13
2023-03-26T07:41:13.689Z,76.40
2023-03-26T07:45:03.867Z,75.41
2023-03-26T07:48:21.157Z,75.24
2023-03-26T07:51:35.215Z,76.22
2023-03-26T07:54:48.256Z,77.11
2023-03-26T07:58:20.869Z,77.52
2023-03-26T08:01:34.594Z,79.71
2023-03-26T08:04:50.503Z,79.63
2023-03-26T08:08:32.541Z,76.96
2023-03-26T08:11:53.743Z,77.23
2023-03-26T08:15:29.580Z,76.49
2023-03-26T08:18:48.739Z,73.78
2023-03-26T08:22:06.297Z,72.97
2023-03-26T08:25:36.010Z,70.99
2023-03-26T08:29:13.286Z,69.51
2023-03-26T08:32:25.900Z,68.73
2023-03-26T08:35:42.637Z,66.68
2023-03-26T08:38:55.466Z,64.98
2023-03-26T08:42:26.740Z,65.13
2023-03-26T08:46:12.962Z,65.19
2023-03-26T08:49:42.497Z,62.51
2023-03-26T08:53:08.581Z,60.75
2023-03-26T08:56:49.598Z,60.75
2023-03-26T09:00:33.135Z,61.40
2023-03-26T09:03:48.456Z,59.97
2023-03-26T09:07:21.027Z,59.36
2023-03-26T09:10:52.295Z,57.85
2023-03-26T09:14:20.953Z,57.93
2023-03-26T09:17:48.603Z,56.75
2023-03-26T09:21:37.507Z,55.48
2023-03-26T09:24:55.924Z,55.54
2023-03-26T09:28:27.072Z,55.79
2023-03-26T09:32:16.692Z,55.94
2023-03-26T09:35:52.905Z,56.93
2023-03-26T09:39:08.813Z,58.27
2023-03-26T09:42:46.226Z,57.70
2023-03-26T09:46:21.985Z,58.12
2023-03-26T09:49:48.747Z,60.61
2023-03-26T09:53:09.330Z,61.78
2023-03-26T09:56:27.998Z,55.85
2023-03-26T10:00:07.139Z,56.02
2023-03-26T10:03:38.221Z,56.85
2023-03-26T10:07:12.469Z,57.95
2023-03-26T10:10:43.564Z,59.68
2023-03-26T10:14:04.057Z,57.84
2023-03-26T10:17:28.683Z,55.71
2023-03-26T10:20:53.170Z,54.58
2023-03-26T10:24:20.845Z,54.42
2023-03-26T10:27:57.784Z,57.06
2023-03-26T10:31:40.347Z,57.61
2023-03-26T10:35:12.124Z,53.85
2023-03-26T10:39:02.120Z,57.41
2023-03-26T10:42:33.412Z,57.33
2023-03-26T10:46:09.838Z,55.63
2023-03-26T10:49:41.444Z,54.79
2023-03-26T10:53:21.123Z,54.93
2023-03-26T10:56:40.424Z,55.35
2023-03-26T10:59:55.670Z,57.97
2023-03-26T11:03:11.312Z,61.08
2023-03-26T11:06:31.168Z,64.48
2023-03-26T11:10:14.852Z,65.56
2023-03-26T11:13:43.144Z,66.95
2023-03-26T11:17:08.745Z,67.34
2023-03-26T11:20:36.161Z,67.18
2023-03-26T11:24:05.001Z,67.98
2023-03-26T11:27:25.854Z,67.08
2023-03-26T11:31:04.565Z,65.23
2023-03-26T11:34:18.956Z,62.13
2023-03-26T11:37:47.897Z,62.99
2023-03-26T11:41:00.340Z,60.54
2023-03-26T11:44:19.229Z,60.09
2023-03-26T11:47:35.856Z,59.87
2023-03-26T11:50:51.448Z,59.86
2023-03-26T11:54:04.938Z,59.79
2023-03-26T11:57:33.399Z,60.16
2023-03-26T12:00:45.853Z,58.55
2023-03-26T12:04:18.667Z,58.95
2023-03-26T12:07:32.505Z,58.63
2023-03-26T12:10:45.540Z,56.74
2023-03-26T12:14:02.733Z,56.62
2023-03-26T12:17:31.389Z,51.97
2023-03-26T12:20:45.048Z,50.01
2023-03-26T12:23:58.647Z,50.19
2023-03-26T12:27:22.159Z,50.20
2023-03-26T12:30:37.130Z,52.92
2023-03-26T12:34:22.376Z,47.25
2023-03-26T12:37:37.096Z,43.43
2023-03-26T12:40:54.901Z,39.62
2023-03-26T12:44:54.653Z,40.34
2023-03-26T12:48:03.925Z,41.02
2023-03-26T12:51:26.786Z,43.23
2023-03-26T12:54:57.185Z,39.27
2023-03-26T12:58:25.926Z,39.18
2023-03-26T13:02:20.009Z,38.50
2023-03-26T13:05:44.096Z,39.34
2023-03-26T13:09:12.050Z,37.71
2023-03-26T13:12:25.084Z,36.55
2023-03-26T13:15:38.711Z,36.58
2023-03-26T13:19:22.537Z,36.93
2023-03-26T13:22:43.717Z,36.70
2023-03-26T13:25:56.216Z,36.63
2023-03-26T13:29:18.045Z,35.68
2023-03-26T13:32:40.076Z,36.46
2023-03-26T13:36:22.366Z,35.99
2023-03-26T13:39:41.573Z,35.86
2023-03-26T13:43:02.677Z,37.26
2023-03-26T13:46:24.697Z,37.81
2023-03-26T13:49:48.900Z,37.40
2023-03-26T13:53:25.805Z,36.81
2023-03-26T13:56:44.468Z,35.60
2023-03-26T13:59:58.761Z,36.13
2023-03-26T14:03:18.159Z,36.27
2023-03-26T14:06:57.578Z,35.51
2023-03-26T14:10:27.405Z,34.90
2023-03-26T14:13:55.831Z,35.73
2023-03-26T14:17:27.108Z,35.17
2023-03-26T14:21:03.189Z,34.50
2023-03-26T14:24:43.094Z,34.30
2023-03-26T14:27:58.481Z,34.40
2023-03-26T14:31:34.226Z,34.15
2023-03-26T14:34:59.000Z,35.16
2023-03-26T14:38:23.161Z,35.31
2023-03-26T14:41:48.983Z,34.98
2023-03-26T14:45:19.960Z,35.90
2023-03-26T14:48:54.480Z,35.70
2023-03-26T14:52:30.191Z,37.58
2023-03-26T14:56:00.572Z,36.60
2023-03-26T14:59:49.951Z,36.69
2023-03-26T15:03:07.505Z,35.63
2023-03-26T15:06:48.385Z,35.54
2023-03-26T15:10:15.608Z,34.24
2023-03-26T15:13:31.016Z,33.02
2023-03-26T15:17:01.324Z,32.76
2023-03-26T15:20:26.084Z,31.92
2023-03-26T15:24:08.977Z,32.56
2023-03-26T15:27:46.180Z,33.31
2023-03-26T15:31:14.112Z,34.87
2023-03-26T15:34:51.556Z,35.03
2023-03-26T15:38:23.385Z,36.02
2023-03-26T15:41:38.809Z,37.17
2023-03-26T15:45:14.726Z,36.77
2023-03-26T15:48:39.155Z,36.31
2023-03-26T15:52:09.964Z,36.40
2023-03-26T15:55:36.211Z,36.91
2023-03-26T15:59:15.684Z,36.39
2023-03-26T16:02:50.220Z,37.02
2023-03-26T16:06:14.115Z,37.49
2023-03-26T16:09:38.752Z,37.80
2023-03-26T16:13:28.227Z,37.74
2023-03-26T16:16:54.120Z,37.15
2023-03-26T16:20:38.654Z,36.62
2023-03-26T16:24:13.408Z,36.72
2023-03-26T16:27:30.322Z,37.43
2023-03-26T16:30:46.072Z,37.61
2023-03-26T16:34:20.536Z,38.09
2023-03-26T16:37:39.626Z,38.30
2023-03-26T16:41:00.287Z,38.67
2023-03-26T16:44:53.276Z,39.12
2023-03-26T16:48:27.695Z,39.35
2023-03-26T16:51:39.895Z,39.94
2023-03-26T16:55:14.505Z,40.25
2023-03-26T16:59:16.866Z,40.29
2023-03-26T17:02:45.858Z,40.89
2023-03-26T17:06:03.453Z,41.20
2023-03-26T17:09:19.400Z,41.66
2023-03-26T17:12:31.599Z,42.15
2023-03-26T17:16:00.001Z,42.02
2023-03-26T17:19:29.655Z,42.35
2023-03-26T17:22:56.975Z,42.91
2023-03-26T17:26:21.667Z,43.22
2023-03-26T17:30:06.361Z,43.32
2023-03-26T17:33:36.204Z,43.46
2023-03-26T17:36:56.271Z,43.64
2023-03-26T17:40:48.064Z,43.88
2023-03-26T17:44:01.014Z,44.03
2023-03-26T17:47:23.837Z,44.36
2023-03-26T17:51:00.705Z,44.59
2023-03-26T17:54:31.531Z,45.84
2023-03-26T17:57:44.779Z,47.12
2023-03-26T18:01:34.751Z,47.78
2023-03-26T18:04:48.770Z,48.08
2023-03-26T18:08:02.104Z,48.27
2023-03-26T18:11:31.725Z,48.23
2023-03-26T18:14:55.881Z,48.23
2023-03-26T18:18:28.140Z,48.83
2023-03-26T18:21:40.481Z,48.52
2023-03-26T18:24:59.750Z,49.03
2023-03-26T18:28:13.393Z,48.87
2023-03-26T18:31:26.509Z,49.07
2023-03-26T18:34:46.246Z,49.34
2023-03-26T18:38:00.059Z,48.51
2023-03-26T18:41:21.851Z,48.54
2023-03-26T18:44:36.743Z,49.97
2023-03-26T18:47:51.926Z,50.23
2023-03-26T18:51:06.088Z,51.78
2023-03-26T18:54:19.360Z,51.72
2023-03-26T18:57:32.078Z,50.78
2023-03-26T19:00:44.436Z,51.66
2023-03-26T19:04:05.811Z,52.06
2023-03-26T19:07:22.646Z,51.66
2023-03-26T19:10:35.262Z,50.50
2023-03-26T19:13:51.000Z,49.46
2023-03-26T19:17:04.708Z,50.17
2023-03-26T19:20:22.725Z,50.56
2023-03-26T19:23:37.959Z,50.97
2023-03-26T19:26:50.862Z,51.68
2023-03-26T19:30:03.716Z,52.00
2023-03-26T19:33:18.447Z,52.38
2023-03-26T19:36:32.347Z,52.27
2023-03-26T19:39:49.470Z,52.67
2023-03-26T19:43:03.691Z,52.76
2023-03-26T19:46:16.911Z,52.87
2023-03-26T19:49:34.360Z,52.90
2023-03-26T19:52:46.698Z,52.24
2023-03-26T19:56:13.210Z,52.32
2023-03-26T19:59:25.614Z,52.27
2023-03-26T20:02:38.278Z,52.48
2023-03-26T20:05:50.894Z,52.41
2023-03-26T20:09:04.219Z,52.06
2023-03-26T20:12:16.874Z,51.81
2023-03-26T20:15:31.085Z,51.22
2023-03-26T20:18:43.784Z,51.20
2023-03-26T20:21:56.565Z,50.45
2023-03-26T20:25:30.984Z,50.40
2023-03-26T20:28:48.320Z,50.06
2023-03-26T20:32:01.424Z,49.26
2023-03-26T20:35:15.590Z,48.52
2023-03-26T20:38:39.242Z,49.16
2023-03-26T20:41:53.073Z,48.82
2023-03-26T20:45:18.049Z,48.57
2023-03-26T20:48:30.414Z,48.57
2023-03-26T20:51:43.716Z,48.66
2023-03-26T20:54:56.149Z,48.82
2023-03-26T20:58:12.531Z,49.03
2023-03-26T21:01:25.128Z,49.32
2023-03-26T21:04:37.813Z,49.54
2023-03-26T21:08:02.362Z,49.42
2023-03-26T21:11:26.304Z,49.61
2023-03-26T21:14:44.343Z,50.27
2023-03-26T21:17:57.494Z,50.37
2023-03-26T21:21:28.618Z,50.58
2023-03-26T21:25:01.433Z,50.90
2023-03-26T21:28:49.202Z,51.29
2023-03-26T21:32:05.809Z,51.75
2023-03-26T21:35:18.636Z,51.94
2023-03-26T21:38:32.926Z,53.32
2023-03-26T21:42:05.399Z,55.89
2023-03-26T21:45:19.055Z,57.88
2023-03-26T21:48:31.709Z,60.94
2023-03-26T21:51:44.660Z,65.28
2023-03-26T21:55:00.678Z,68.84
2023-03-26T21:58:37.019Z,71.70
2023-03-26T22:02:02.887Z,73.07
2023-03-26T22:05:17.341Z,76.93
2023-03-26T22:08:31.552Z,78.56
2023-03-26T22:11:44.316Z,83.74
2023-03-26T22:14:58.124Z,88.58
2023-03-26T22:18:10.766Z,93.19
2023-03-26T22:21:23.610Z,96.45
2023-03-26T22:24:37.178Z,99.93
2023-03-26T22:27:49.926Z,100.00
2023-03-26T22:31:08.618Z,100.00
2023-03-26T22:34:23.133Z,100.00
2023-03-26T22:37:37.155Z,100.00
2023-03-26T22:40:58.785Z,100.00
2023-03-26T22:44:19.876Z,100.00
2023-03-26T22:47:34.392Z,100.00
2023-03-26T22:50:56.936Z,100.00
2023-03-26T22:54:09.628Z,100.00
2023-03-26T22:57:22.825Z,100.00
2023-03-26T23:00:36.205Z,100.00
2023-03-26T23:03:49.059Z,100.00
2023-03-26T23:07:01.496Z,100.00
2023-03-26T23:10:14.096Z,100.00
2023-03-26T23:13:26.677Z,100.00
2023-03-26T23:16:39.353Z,100.00
2023-03-26T23:19:51.713Z,100.00
2023-03-26T23:23:04.308Z,100.00
2023-03-26T23:26:16.711Z,100.00
2023-03-26T23:29:30.151Z,100.00
2023-03-26T23:32:42.515Z,100.00
2023-03-26T23:35:59.921Z,100.00
2023-03-26T23:39:12.330Z,100.00
2023-03-26T23:42:28.988Z,100.00
2023-03-26T23:45:46.480Z,100.00
2023-03-26T23:49:00.135Z,100.00
2023-03-26T23:52:12.756Z,100.00
2023-03-26T23:55:28.247Z,100.00
2023-03-26T23:58:40.599Z,100.00
